Time;durP1;ratioP1;P1;durP2;ratioP2;P2;SDS_P1;SDS_P2;PMS_P1;PMS_P2;Temp;Humidity;BMP_temperature;BMP_pressure;BME280_temperature;BME280_humidity;BME280_pressure;Samples;Min_cycle;Max_cycle;Signal;HPM_P1;HPM_P2
2021/07/31 00:02:33;;;;;;;;;;;20.60;99.90;;;;;;5070846;28;20179;-59
2021/07/31 00:05:23;;;;;;;;;;;20.60;99.90;;;;;;5075069;28;20062;-59
2021/07/31 00:08:12;;;;;;;;;;;20.60;99.90;;;;;;5072658;28;20348;-59
2021/07/31 00:11:01;;;;;;;;;;;20.70;99.90;;;;;;5095956;28;20403;-59
2021/07/31 00:13:49;;;;;;;;;;;20.60;99.90;;;;;;5070907;28;19933;-59
2021/07/31 00:16:40;;;;;;;;;;;20.70;99.90;;;;;;5068111;28;19947;-59
2021/07/31 00:19:29;;;;;;;;;;;20.70;99.90;;;;;;5070044;28;19935;-59
2021/07/31 00:22:18;;;;;;;;;;;20.60;99.90;;;;;;5071144;28;19925;-59
2021/07/31 00:25:10;;;;;;;;;;;20.70;99.90;;;;;;5076553;28;19925;-59
2021/07/31 00:28:23;;;;;;;;;;;20.80;99.90;;;;;;5073899;28;20062;-59
2021/07/31 00:31:12;;;;;;;;;;;20.70;99.90;;;;;;5073920;28;19932;-61
2021/07/31 00:34:28;;;;;;;;;;;20.60;99.90;;;;;;5074833;28;19955;-59
2021/07/31 00:37:16;;;;;;;;;;;20.70;99.90;;;;;;5072840;28;19924;-59
2021/07/31 00:40:06;;;;;;;;;;;20.80;99.90;;;;;;5071907;28;20356;-60
2021/07/31 00:42:55;;;;;;;;;;;20.80;99.90;;;;;;5073408;28;19925;-59
2021/07/31 00:45:45;;;;;;;;;;;20.80;99.90;;;;;;5102433;27;19935;-59
2021/07/31 00:48:37;;;;;;;;;;;20.80;99.90;;;;;;5075373;28;20372;-59
2021/07/31 00:51:27;;;;;;;;;;;20.80;99.90;;;;;;5069446;28;19946;-60
2021/07/31 00:54:16;;;;;;;;;;;20.80;99.90;;;;;;5097857;28;19929;-59
2021/07/31 00:57:04;;;;;;;;;;;20.90;99.90;;;;;;5079944;28;20002;-59
2021/07/31 01:00:11;;;;;;;;;;;20.90;99.90;;;;;;5070891;28;20415;-60
2021/07/31 01:03:00;;;;;;;;;;;21.00;99.90;;;;;;5074032;28;19940;-59
2021/07/31 01:05:49;;;;;;;;;;;21.00;99.90;;;;;;5074925;28;19928;-59
2021/07/31 01:08:40;;;;;;;;;;;21.00;99.90;;;;;;5077719;28;20345;-61
2021/07/31 01:11:35;;;;;;;;;;;20.90;99.90;;;;;;5068452;28;20425;-61
2021/07/31 01:14:25;;;;;;;;;;;20.90;99.90;;;;;;5074582;28;19931;-60
2021/07/31 01:17:14;;;;;;;;;;;20.90;99.90;;;;;;5075083;28;20005;-60
2021/07/31 01:20:03;;;;;;;;;;;20.90;99.90;;;;;;5074805;28;19929;-59
2021/07/31 01:22:55;;;;;;;;;;;20.90;99.90;;;;;;5078575;28;19924;-59
2021/07/31 01:25:46;;;;;;;;;;;20.90;99.90;;;;;;5096371;28;20030;-58
2021/07/31 01:28:35;;;;;;;;;;;20.80;99.90;;;;;;5079356;28;20015;-59
2021/07/31 01:31:25;;;;;;;;;;;20.80;99.90;;;;;;5105441;27;19992;-58
2021/07/31 01:34:14;;;;;;;;;;;20.80;99.90;;;;;;5085058;28;19932;-58
2021/07/31 01:37:03;;;;;;;;;;;20.80;99.90;;;;;;5086281;28;20253;-59
2021/07/31 01:39:54;;;;;;;;;;;20.80;99.90;;;;;;5065226;28;20387;-58
2021/07/31 01:42:44;;;;;;;;;;;20.70;99.90;;;;;;5095853;28;19931;-60
2021/07/31 01:45:32;;;;;;;;;;;20.70;99.90;;;;;;5099745;27;20303;-58
2021/07/31 01:48:24;;;;;;;;;;;20.60;99.90;;;;;;5097584;28;20066;-59
2021/07/31 01:51:14;;;;;;;;;;;20.60;99.90;;;;;;5073524;28;19925;-58
2021/07/31 01:54:03;;;;;;;;;;;20.60;99.90;;;;;;5074116;28;19924;-59
2021/07/31 01:56:53;;;;;;;;;;;20.60;99.90;;;;;;5098638;28;19924;-59
2021/07/31 01:59:46;;;;;;;;;;;20.50;99.90;;;;;;5093676;28;19928;-58
2021/07/31 02:02:40;;;;;;;;;;;20.50;99.90;;;;;;5074681;28;19968;-58
2021/07/31 02:05:39;;;;;;;;;;;20.40;99.90;;;;;;5069063;28;20258;-58
2021/07/31 02:08:29;;;;;;;;;;;20.30;99.90;;;;;;5073268;28;19928;-58
2021/07/31 02:11:19;;;;;;;;;;;20.30;99.90;;;;;;5072818;28;19924;-58
2021/07/31 02:14:11;;;;;;;;;;;20.30;99.90;;;;;;5096548;27;19924;-58
2021/07/31 02:17:06;;;;;;;;;;;20.20;99.90;;;;;;5067791;28;19924;-60
2021/07/31 02:19:54;;;;;;;;;;;20.10;99.90;;;;;;5070721;28;19931;-58
2021/07/31 02:23:06;;;;;;;;;;;20.00;99.90;;;;;;5072842;28;19925;-61
2021/07/31 02:26:14;;;;;;;;;;;19.90;99.90;;;;;;5071408;28;19924;-58
2021/07/31 02:29:30;;;;;;;;;;;19.90;99.90;;;;;;5070833;28;19928;-57
2021/07/31 02:32:19;;;;;;;;;;;19.80;99.90;;;;;;5075847;28;19931;-58
2021/07/31 02:35:10;;;;;;;;;;;19.80;99.90;;;;;;5074185;28;19925;-58
2021/07/31 02:38:18;;;;;;;;;;;19.70;99.90;;;;;;5071375;28;19928;-60
2021/07/31 02:41:09;;;;;;;;;;;19.60;99.90;;;;;;5072442;28;20325;-58
2021/07/31 02:43:59;;;;;;;;;;;19.60;99.90;;;;;;5074597;28;20061;-58
2021/07/31 02:46:49;;;;;;;;;;;19.50;99.90;;;;;;5096462;28;20019;-58
2021/07/31 02:49:39;;;;;;;;;;;19.40;99.90;;;;;;5068717;28;19924;-58
2021/07/31 02:52:31;;;;;;;;;;;19.30;99.90;;;;;;5096733;28;19928;-58
2021/07/31 02:55:21;;;;;;;;;;;19.20;99.90;;;;;;5066352;28;19924;-58
2021/07/31 02:58:09;;;;;;;;;;;19.20;99.90;;;;;;5071346;28;19932;-59
2021/07/31 03:01:03;;;;;;;;;;;19.20;99.90;;;;;;5073337;28;20342;-59
2021/07/31 03:03:55;;;;;;;;;;;19.10;99.90;;;;;;5097132;28;19924;-61
2021/07/31 03:06:45;;;;;;;;;;;19.10;99.90;;;;;;5095262;28;19924;-58
2021/07/31 03:09:36;;;;;;;;;;;19.10;99.90;;;;;;5073558;28;19925;-58
2021/07/31 03:12:25;;;;;;;;;;;19.00;99.90;;;;;;5070754;28;19978;-60
2021/07/31 03:15:13;;;;;;;;;;;18.90;99.90;;;;;;5073098;28;20416;-61
2021/07/31 03:18:02;;;;;;;;;;;18.80;99.90;;;;;;5074007;28;20051;-59
2021/07/31 03:20:53;;;;;;;;;;;18.80;99.90;;;;;;5090543;28;19924;-59
2021/07/31 03:23:54;;;;;;;;;;;18.70;99.90;;;;;;5090879;28;19929;-59
2021/07/31 03:26:43;;;;;;;;;;;18.60;99.90;;;;;;5089598;28;19968;-60
2021/07/31 03:29:39;;;;;;;;;;;18.60;99.90;;;;;;5115964;28;19925;-59
2021/07/31 03:32:29;;;;;;;;;;;18.60;99.90;;;;;;5123208;28;19924;-59
2021/07/31 03:35:19;;;;;;;;;;;18.60;99.90;;;;;;5090775;28;20317;-59
2021/07/31 03:38:35;;;;;;;;;;;18.50;99.90;;;;;;5093573;28;19936;-60
2021/07/31 03:41:24;;;;;;;;;;;18.50;99.90;;;;;;5103833;28;19938;-62
2021/07/31 03:44:40;;;;;;;;;;;18.30;99.90;;;;;;5094254;28;19924;-59
2021/07/31 03:47:32;;;;;;;;;;;18.30;99.90;;;;;;5132339;28;19935;-59
2021/07/31 03:50:23;;;;;;;;;;;18.30;99.90;;;;;;5083251;28;19935;-59
2021/07/31 03:53:21;;;;;;;;;;;18.20;99.90;;;;;;5092406;28;19996;-59
2021/07/31 03:56:12;;;;;;;;;;;18.20;99.90;;;;;;5094279;28;19909;-59
2021/07/31 03:59:04;;;;;;;;;;;18.20;99.90;;;;;;5126659;27;19963;-59
2021/07/31 04:01:55;;;;;;;;;;;18.10;99.90;;;;;;5110783;28;19927;-60
2021/07/31 04:04:44;;;;;;;;;;;18.00;99.90;;;;;;5098221;28;19929;-59
2021/07/31 04:07:37;;;;;;;;;;;18.00;99.90;;;;;;5107256;28;19909;-60
2021/07/31 04:10:45;;;;;;;;;;;18.00;99.90;;;;;;5107014;28;19924;-59
2021/07/31 04:13:55;;;;;;;;;;;18.10;99.90;;;;;;5091934;28;20016;-59
2021/07/31 04:16:53;;;;;;;;;;;18.20;99.90;;;;;;5128487;28;19960;-60
2021/07/31 04:19:42;;;;;;;;;;;18.20;99.90;;;;;;5107590;28;19908;-59
2021/07/31 04:22:33;;;;;;;;;;;18.20;99.90;;;;;;5105169;28;19925;-59
2021/07/31 04:25:23;;;;;;;;;;;18.20;99.90;;;;;;5077307;28;19928;-59
2021/07/31 04:28:12;;;;;;;;;;;18.20;99.90;;;;;;5097512;28;19955;-59
2021/07/31 04:31:05;;;;;;;;;;;18.20;99.90;;;;;;5071379;28;19925;-59
2021/07/31 04:34:29;;;;;;;;;;;18.20;99.90;;;;;;5079919;28;19928;-59
2021/07/31 04:37:18;;;;;;;;;;;18.20;99.90;;;;;;5070589;28;20361;-59
2021/07/31 04:40:08;;;;;;;;;;;18.10;99.90;;;;;;5075941;28;19925;-59
2021/07/31 04:42:57;;;;;;;;;;;18.10;99.90;;;;;;5077793;28;19931;-59
2021/07/31 04:45:45;;;;;;;;;;;18.20;99.90;;;;;;5075244;28;20357;-62
2021/07/31 04:48:36;;;;;;;;;;;18.10;99.90;;;;;;5074048;28;19925;-59
2021/07/31 04:51:25;;;;;;;;;;;18.10;99.90;;;;;;5075051;28;19935;-59
2021/07/31 04:54:15;;;;;;;;;;;18.20;99.90;;;;;;5076680;28;19931;-60
2021/07/31 04:57:03;;;;;;;;;;;18.40;99.90;;;;;;5091066;28;19928;-59
2021/07/31 04:59:52;;;;;;;;;;;18.40;99.90;;;;;;5082112;28;19924;-59
2021/07/31 05:02:41;;;;;;;;;;;18.30;99.90;;;;;;5098570;27;19928;-59
2021/07/31 05:05:32;;;;;;;;;;;18.40;99.90;;;;;;5075987;28;19925;-62
2021/07/31 05:08:21;;;;;;;;;;;18.30;99.90;;;;;;5077564;28;20057;-59
2021/07/31 05:11:10;;;;;;;;;;;18.50;99.90;;;;;;5087574;28;19987;-58
2021/07/31 05:13:58;;;;;;;;;;;18.60;99.90;;;;;;5079978;28;19932;-59
2021/07/31 05:16:49;;;;;;;;;;;18.70;99.90;;;;;;5088887;28;19973;-59
2021/07/31 05:19:37;;;;;;;;;;;18.70;99.90;;;;;;5099006;28;20007;-59
2021/07/31 05:22:32;;;;;;;;;;;18.80;99.90;;;;;;5094627;28;19991;-59
2021/07/31 05:25:21;;;;;;;;;;;18.90;99.90;;;;;;5082078;28;19924;-59
2021/07/31 05:28:09;;;;;;;;;;;19.10;99.90;;;;;;5078260;28;20015;-59
2021/07/31 05:30:58;;;;;;;;;;;19.30;99.90;;;;;;5080393;28;19988;-60
2021/07/31 05:33:47;;;;;;;;;;;19.40;99.90;;;;;;5072377;28;19967;-59
2021/07/31 05:36:37;;;;;;;;;;;19.50;99.90;;;;;;5076257;28;20023;-59
2021/07/31 05:39:27;;;;;;;;;;;19.70;99.90;;;;;;5080837;28;20322;-59
2021/07/31 05:42:16;;;;;;;;;;;19.50;99.90;;;;;;5079122;28;19935;-59
2021/07/31 05:45:06;;;;;;;;;;;19.70;99.90;;;;;;5076223;28;20052;-60
2021/07/31 05:47:57;;;;;;;;;;;19.80;99.90;;;;;;5084633;28;20437;-59
2021/07/31 05:50:46;;;;;;;;;;;19.90;99.90;;;;;;5077728;28;19928;-59
2021/07/31 05:53:35;;;;;;;;;;;20.00;99.90;;;;;;5081477;28;19947;-59
2021/07/31 05:56:24;;;;;;;;;;;20.20;99.90;;;;;;5072380;28;19928;-59
2021/07/31 05:59:12;;;;;;;;;;;19.60;99.90;;;;;;5077270;28;19925;-59
2021/07/31 06:02:03;;;;;;;;;;;19.70;99.90;;;;;;5077031;28;19924;-60
2021/07/31 06:04:53;;;;;;;;;;;19.70;99.90;;;;;;5077766;28;20229;-59
2021/07/31 06:07:42;;;;;;;;;;;20.10;99.90;;;;;;5063791;28;19928;-59
2021/07/31 06:10:31;;;;;;;;;;;20.30;99.90;;;;;;5074193;28;19925;-59
2021/07/31 06:13:21;;;;;;;;;;;20.20;99.90;;;;;;5077260;28;19924;-59
2021/07/31 06:16:09;;;;;;;;;;;20.20;99.90;;;;;;5075599;28;19925;-60
2021/07/31 06:18:58;;;;;;;;;;;20.20;99.90;;;;;;5083182;28;19924;-60
2021/07/31 06:21:46;;;;;;;;;;;20.10;99.90;;;;;;5071948;28;19929;-59
2021/07/31 06:24:35;;;;;;;;;;;20.20;99.90;;;;;;5075942;28;19986;-60
2021/07/31 06:27:24;;;;;;;;;;;20.40;99.90;;;;;;5072985;28;19950;-60
2021/07/31 06:30:14;;;;;;;;;;;20.70;99.90;;;;;;5078334;28;19940;-59
2021/07/31 06:33:05;;;;;;;;;;;21.00;99.70;;;;;;5085890;28;19924;-60
2021/07/31 06:35:53;;;;;;;;;;;21.20;99.20;;;;;;5076166;28;20339;-59
2021/07/31 06:38:42;;;;;;;;;;;21.60;98.50;;;;;;5078763;28;20312;-60
2021/07/31 06:41:31;;;;;;;;;;;21.90;97.90;;;;;;5076745;28;19924;-63
2021/07/31 06:44:26;;;;;;;;;;;22.20;96.50;;;;;;5083385;28;19938;-58
2021/07/31 06:47:18;;;;;;;;;;;22.70;95.10;;;;;;5078548;28;19931;-59
2021/07/31 06:50:10;;;;;;;;;;;23.10;93.50;;;;;;5093193;28;19938;-59
2021/07/31 06:53:02;;;;;;;;;;;23.60;92.60;;;;;;5086319;28;19983;-59
2021/07/31 06:55:51;;;;;;;;;;;24.00;91.80;;;;;;5098889;27;19924;-59
2021/07/31 06:58:39;;;;;;;;;;;24.60;90.30;;;;;;5086143;28;19939;-59
2021/07/31 07:01:53;;;;;;;;;;;25.10;89.20;;;;;;5073199;28;19925;-59
2021/07/31 07:04:43;;;;;;;;;;;26.00;86.10;;;;;;5077731;28;19982;-59
2021/07/31 07:07:33;;;;;;;;;;;28.00;79.70;;;;;;5096028;28;19919;-60
2021/07/31 07:10:24;;;;;;;;;;;29.40;72.10;;;;;;5076768;28;19925;-59
2021/07/31 07:13:13;;;;;;;;;;;30.90;63.20;;;;;;5072685;28;19982;-57
2021/07/31 07:16:04;;;;;;;;;;;28.20;66.10;;;;;;5078726;28;19947;-57
2021/07/31 07:18:53;;;;;;;;;;;28.30;67.40;;;;;;5082510;28;20359;-57
2021/07/31 07:22:06;;;;;;;;;;;28.10;65.70;;;;;;5084892;28;19961;-58
2021/07/31 07:24:57;;;;;;;;;;;28.50;64.40;;;;;;5059871;28;20373;-57
2021/07/31 07:27:45;;;;;;;;;;;29.50;62.30;;;;;;5075619;28;19932;-58
2021/07/31 07:30:34;;;;;;;;;;;30.00;60.50;;;;;;5071733;28;19932;-55
2021/07/31 07:33:23;;;;;;;;;;;29.60;61.60;;;;;;5075860;28;19928;-56
2021/07/31 07:36:13;;;;;;;;;;;30.00;59.60;;;;;;5075471;28;20104;-55
2021/07/31 07:42:16;;;;;;;;;;;28.60;59.90;;;;;;5082424;28;20085;-56
2021/07/31 07:45:06;;;;;;;;;;;26.90;64.10;;;;;;5078892;28;19936;-55
2021/07/31 07:47:55;;;;;;;;;;;26.80;64.20;;;;;;5087726;28;19923;-55
2021/07/31 07:50:44;;;;;;;;;;;28.20;62.50;;;;;;5087551;28;19934;-55
2021/07/31 07:53:32;;;;;;;;;;;29.10;59.90;;;;;;5082931;28;19925;-60
2021/07/31 07:56:21;;;;;;;;;;;31.10;55.90;;;;;;5080412;28;20251;-55
2021/07/31 07:59:11;;;;;;;;;;;31.40;54.30;;;;;;5084688;28;20020;-57
2021/07/31 08:01:59;;;;;;;;;;;32.20;52.80;;;;;;5082680;28;19924;-55
2021/07/31 08:04:48;;;;;;;;;;;31.00;53.60;;;;;;5079562;28;19931;-58
2021/07/31 08:07:37;;;;;;;;;;;30.20;54.80;;;;;;5087313;28;19936;-55
2021/07/31 08:10:26;;;;;;;;;;;31.20;53.70;;;;;;5083257;28;20042;-55
2021/07/31 08:13:15;;;;;;;;;;;32.00;51.40;;;;;;5085767;28;19936;-55
2021/07/31 08:16:05;;;;;;;;;;;32.00;51.30;;;;;;5080811;28;20297;-55
2021/07/31 08:18:56;;;;;;;;;;;30.70;53.00;;;;;;5086389;28;20529;-56
2021/07/31 08:21:45;;;;;;;;;;;28.90;56.80;;;;;;5077840;28;21399;-55
2021/07/31 08:24:34;;;;;;;;;;;30.10;55.30;;;;;;5092636;28;20088;-55
2021/07/31 08:27:23;;;;;;;;;;;30.40;53.70;;;;;;5072506;28;20340;-55
2021/07/31 08:30:12;;;;;;;;;;;31.80;52.50;;;;;;5082076;28;19924;-55
2021/07/31 08:33:02;;;;;;;;;;;31.00;51.70;;;;;;5088801;28;20269;-56
2021/07/31 08:35:53;;;;;;;;;;;30.90;52.50;;;;;;5096770;28;20340;-56
2021/07/31 08:38:41;;;;;;;;;;;30.20;53.00;;;;;;5098370;28;19924;-56
2021/07/31 08:41:30;;;;;;;;;;;31.30;52.10;;;;;;5103912;28;20298;-55
2021/07/31 08:47:32;;;;;;;;;;;28.70;55.20;;;;;;5099522;28;20007;-57
2021/07/31 08:50:24;;;;;;;;;;;30.10;54.10;;;;;;5094427;28;19925;-56
2021/07/31 08:53:13;;;;;;;;;;;31.50;51.60;;;;;;5092185;28;19924;-56
2021/07/31 08:56:01;;;;;;;;;;;31.50;51.70;;;;;;5093972;28;19952;-56
2021/07/31 08:58:50;;;;;;;;;;;29.50;53.30;;;;;;5087630;28;19924;-56
2021/07/31 09:01:38;;;;;;;;;;;30.10;52.80;;;;;;5104079;28;19999;-56
2021/07/31 09:04:29;;;;;;;;;;;31.20;51.10;;;;;;5101348;28;19928;-56
2021/07/31 09:07:19;;;;;;;;;;;32.90;48.10;;;;;;5096150;28;19950;-56
2021/07/31 09:10:22;;;;;;;;;;;31.80;50.70;;;;;;5093418;28;19971;-56
2021/07/31 09:13:12;;;;;;;;;;;31.60;49.90;;;;;;5086960;28;19925;-56
2021/07/31 09:16:08;;;;;;;;;;;33.40;47.40;;;;;;5094427;28;19924;-56
2021/07/31 09:19:02;;;;;;;;;;;32.20;48.10;;;;;;5090884;28;19925;-56
2021/07/31 09:21:51;;;;;;;;;;;28.70;54.40;;;;;;5099748;28;19935;-56
2021/07/31 09:24:41;;;;;;;;;;;26.20;60.30;;;;;;5111017;28;19924;-56
2021/07/31 09:27:30;;;;;;;;;;;28.50;56.60;;;;;;5101229;28;19928;-55
2021/07/31 09:30:20;;;;;;;;;;;28.80;55.00;;;;;;5107801;28;19924;-55
2021/07/31 09:33:08;;;;;;;;;;;28.20;56.80;;;;;;5084787;28;19928;-58
2021/07/31 09:36:01;;;;;;;;;;;27.70;58.40;;;;;;5104130;28;20048;-58
2021/07/31 09:38:50;;;;;;;;;;;26.70;60.00;;;;;;5076929;28;19932;-57
2021/07/31 09:41:40;;;;;;;;;;;25.10;63.20;;;;;;5078098;28;20007;-56
2021/07/31 09:44:29;;;;;;;;;;;24.40;65.90;;;;;;5078147;28;19929;-56
2021/07/31 09:47:18;;;;;;;;;;;24.20;66.70;;;;;;5095159;28;19931;-56
2021/07/31 09:50:07;;;;;;;;;;;23.70;68.80;;;;;;5085135;28;19931;-56
2021/07/31 09:53:06;;;;;;;;;;;23.40;69.70;;;;;;5080092;28;19924;-58
2021/07/31 09:55:55;;;;;;;;;;;23.60;70.30;;;;;;5081811;28;20268;-55
2021/07/31 09:58:45;;;;;;;;;;;23.20;71.40;;;;;;5091317;28;19923;-55
2021/07/31 10:01:35;;;;;;;;;;;23.10;72.30;;;;;;5089463;28;20364;-56
2021/07/31 10:04:26;;;;;;;;;;;23.00;72.10;;;;;;5081018;28;19936;-55
2021/07/31 10:07:17;;;;;;;;;;;22.60;72.80;;;;;;5080388;28;20422;-55
2021/07/31 10:10:08;;;;;;;;;;;22.50;73.30;;;;;;5078380;28;19932;-55
2021/07/31 10:12:58;;;;;;;;;;;22.50;73.40;;;;;;5077693;28;20402;-55
2021/07/31 10:15:48;;;;;;;;;;;22.60;73.50;;;;;;5083097;28;19930;-55
2021/07/31 10:18:37;;;;;;;;;;;22.70;73.30;;;;;;5073715;28;19939;-56
2021/07/31 10:21:26;;;;;;;;;;;22.90;73.50;;;;;;5080919;28;19932;-55
2021/07/31 10:24:15;;;;;;;;;;;24.20;70.30;;;;;;5077498;28;19993;-58
2021/07/31 10:27:20;;;;;;;;;;;25.30;67.30;;;;;;5081247;28;19924;-56
2021/07/31 10:30:31;;;;;;;;;;;24.70;68.40;;;;;;5079220;28;19947;-55
2021/07/31 10:33:38;;;;;;;;;;;23.70;71.50;;;;;;5091273;28;19932;-58
2021/07/31 10:36:32;;;;;;;;;;;23.40;72.00;;;;;;5084011;28;19924;-56
2021/07/31 10:39:41;;;;;;;;;;;23.10;72.40;;;;;;5088508;28;19928;-55
2021/07/31 10:42:59;;;;;;;;;;;23.20;71.50;;;;;;5086929;28;19947;-56
2021/07/31 10:45:50;;;;;;;;;;;23.60;70.30;;;;;;5081306;28;19946;-55
2021/07/31 10:48:39;;;;;;;;;;;23.30;70.70;;;;;;5070322;28;19924;-58
2021/07/31 10:51:42;;;;;;;;;;;23.10;71.00;;;;;;5077819;28;19928;-56
2021/07/31 10:54:57;;;;;;;;;;;23.20;71.80;;;;;;5081539;28;19932;-55
2021/07/31 10:58:04;;;;;;;;;;;23.20;70.10;;;;;;5079628;28;19935;-55
2021/07/31 11:00:53;;;;;;;;;;;22.90;71.10;;;;;;5081123;28;19924;-56
2021/07/31 11:03:42;;;;;;;;;;;23.60;70.20;;;;;;5086157;28;19924;-55
2021/07/31 11:06:46;;;;;;;;;;;23.40;70.50;;;;;;5089583;28;19928;-56
2021/07/31 11:09:36;;;;;;;;;;;23.40;72.20;;;;;;5083154;28;19986;-56
2021/07/31 11:12:41;;;;;;;;;;;23.50;72.60;;;;;;5076008;28;19924;-55
2021/07/31 11:15:30;;;;;;;;;;;23.60;72.10;;;;;;5069462;28;20343;-56
2021/07/31 11:18:18;;;;;;;;;;;23.90;69.60;;;;;;5082742;28;19925;-57
2021/07/31 11:21:08;;;;;;;;;;;24.30;67.60;;;;;;5088584;28;20351;-55
2021/07/31 11:23:58;;;;;;;;;;;24.40;67.50;;;;;;5081161;28;20287;-55
2021/07/31 11:26:49;;;;;;;;;;;25.40;65.10;;;;;;5080264;28;19928;-59
2021/07/31 11:29:38;;;;;;;;;;;26.40;62.60;;;;;;5080010;28;20259;-56
2021/07/31 11:32:28;;;;;;;;;;;27.10;58.90;;;;;;5083748;28;19925;-57
2021/07/31 11:35:26;;;;;;;;;;;26.20;61.10;;;;;;5088359;28;19924;-56
2021/07/31 11:38:33;;;;;;;;;;;25.80;64.10;;;;;;5082321;28;20028;-56
2021/07/31 11:41:23;;;;;;;;;;;24.70;66.00;;;;;;5086400;28;19928;-56
2021/07/31 11:44:23;;;;;;;;;;;24.00;67.70;;;;;;5080587;28;20233;-56
2021/07/31 11:47:14;;;;;;;;;;;23.50;69.40;;;;;;5076299;28;19924;-56
2021/07/31 11:50:07;;;;;;;;;;;23.40;68.60;;;;;;5085370;28;20259;-56
2021/07/31 11:52:55;;;;;;;;;;;23.10;68.40;;;;;;5081745;28;19924;-56
2021/07/31 11:55:43;;;;;;;;;;;23.00;68.20;;;;;;5087206;28;19937;-58
2021/07/31 11:58:32;;;;;;;;;;;23.10;69.10;;;;;;5082515;28;19928;-56
2021/07/31 12:01:21;;;;;;;;;;;23.10;70.30;;;;;;5085217;28;19931;-57
2021/07/31 12:04:10;;;;;;;;;;;23.60;71.30;;;;;;5077985;28;19947;-56
2021/07/31 12:07:07;;;;;;;;;;;23.90;70.60;;;;;;5077075;28;19928;-56
2021/07/31 12:10:20;;;;;;;;;;;23.70;70.30;;;;;;5078763;28;19924;-56
2021/07/31 12:13:10;;;;;;;;;;;23.30;72.20;;;;;;5072130;28;20446;-56
2021/07/31 12:15:58;;;;;;;;;;;23.60;72.20;;;;;;5081266;28;19924;-56
2021/07/31 12:18:52;;;;;;;;;;;23.40;71.60;;;;;;5086093;28;19924;-55
2021/07/31 12:21:42;;;;;;;;;;;23.30;72.00;;;;;;5087711;28;19933;-56
2021/07/31 12:24:32;;;;;;;;;;;23.70;71.20;;;;;;5090028;28;20268;-56
2021/07/31 12:27:20;;;;;;;;;;;23.50;71.80;;;;;;5085589;28;19924;-56
2021/07/31 12:30:19;;;;;;;;;;;23.50;72.50;;;;;;5088648;28;19924;-55
2021/07/31 12:33:20;;;;;;;;;;;23.50;71.70;;;;;;5083682;28;20014;-56
2021/07/31 12:36:15;;;;;;;;;;;23.90;70.40;;;;;;5080719;28;20019;-56
2021/07/31 12:39:29;;;;;;;;;;;23.70;70.50;;;;;;5088986;28;19924;-56
2021/07/31 12:42:23;;;;;;;;;;;23.40;69.90;;;;;;5078332;28;19993;-56
2021/07/31 12:45:12;;;;;;;;;;;23.40;69.90;;;;;;5080901;28;19924;-56
2021/07/31 12:48:01;;;;;;;;;;;23.70;69.20;;;;;;5083202;28;20015;-56
2021/07/31 12:50:50;;;;;;;;;;;23.90;69.30;;;;;;5102823;28;19924;-56
2021/07/31 12:53:40;;;;;;;;;;;24.10;69.20;;;;;;5084629;28;19931;-56
2021/07/31 12:56:28;;;;;;;;;;;23.70;68.90;;;;;;5088428;28;19924;-56
2021/07/31 12:59:16;;;;;;;;;;;23.70;69.30;;;;;;5091072;28;19933;-57
2021/07/31 13:02:12;;;;;;;;;;;23.90;69.70;;;;;;5081026;28;19928;-57
2021/07/31 13:05:01;;;;;;;;;;;23.70;70.10;;;;;;5079046;28;20376;-57
2021/07/31 13:07:52;;;;;;;;;;;23.60;69.80;;;;;;5077637;28;19924;-59
2021/07/31 13:10:42;;;;;;;;;;;23.90;71.60;;;;;;5079970;28;19924;-56
2021/07/31 13:13:31;;;;;;;;;;;24.10;70.80;;;;;;5080519;28;19928;-56
2021/07/31 13:16:20;;;;;;;;;;;24.20;68.50;;;;;;5075492;28;20104;-57
2021/07/31 13:19:08;;;;;;;;;;;24.40;68.00;;;;;;5075483;28;19924;-56
2021/07/31 13:21:57;;;;;;;;;;;24.50;68.40;;;;;;5077208;28;19928;-56
2021/07/31 13:24:47;;;;;;;;;;;24.40;68.00;;;;;;5074397;28;19925;-56
2021/07/31 13:27:37;;;;;;;;;;;24.00;69.30;;;;;;5083250;28;19928;-56
2021/07/31 13:30:26;;;;;;;;;;;23.60;69.10;;;;;;5087394;28;19925;-56
2021/07/31 13:33:15;;;;;;;;;;;23.70;70.50;;;;;;5075886;28;19946;-56
2021/07/31 13:36:04;;;;;;;;;;;23.80;69.20;;;;;;5074693;28;19925;-56
2021/07/31 13:38:58;;;;;;;;;;;23.80;69.90;;;;;;5080721;28;19993;-56
2021/07/31 13:42:11;;;;;;;;;;;23.90;70.30;;;;;;5079200;28;19924;-55
2021/07/31 13:45:01;;;;;;;;;;;24.40;68.80;;;;;;5087254;28;19924;-56
2021/07/31 13:47:51;;;;;;;;;;;24.60;68.40;;;;;;5084608;28;20019;-55
2021/07/31 13:50:39;;;;;;;;;;;24.50;68.60;;;;;;5084680;28;19932;-55
2021/07/31 13:53:31;;;;;;;;;;;24.40;68.40;;;;;;5102541;27;19924;-55
2021/07/31 13:56:20;;;;;;;;;;;24.10;68.80;;;;;;5080785;28;19924;-57
2021/07/31 13:59:09;;;;;;;;;;;24.20;69.50;;;;;;5074148;28;20272;-56
2021/07/31 14:01:59;;;;;;;;;;;24.10;67.90;;;;;;5094669;27;20026;-56
2021/07/31 14:04:49;;;;;;;;;;;24.30;68.30;;;;;;5079743;28;20361;-55
2021/07/31 14:07:38;;;;;;;;;;;24.30;67.50;;;;;;5084231;28;19924;-56
2021/07/31 14:10:30;;;;;;;;;;;24.20;68.00;;;;;;5086650;28;20024;-56
2021/07/31 14:13:19;;;;;;;;;;;24.40;70.10;;;;;;5101589;28;19924;-55
2021/07/31 14:16:08;;;;;;;;;;;24.50;67.90;;;;;;5084025;28;19947;-55
2021/07/31 14:18:58;;;;;;;;;;;24.40;68.70;;;;;;5076078;28;20380;-58
2021/07/31 14:21:46;;;;;;;;;;;24.30;68.90;;;;;;5082124;28;19947;-56
2021/07/31 14:24:35;;;;;;;;;;;24.40;67.80;;;;;;5085464;28;19928;-56
2021/07/31 14:27:23;;;;;;;;;;;24.60;68.30;;;;;;5091223;28;19928;-56
2021/07/31 14:30:12;;;;;;;;;;;24.40;67.60;;;;;;5085418;28;19931;-56
2021/07/31 14:33:01;;;;;;;;;;;24.30;67.80;;;;;;5082520;28;19928;-57
2021/07/31 14:35:52;;;;;;;;;;;24.20;68.50;;;;;;5094047;28;19984;-57
2021/07/31 14:38:42;;;;;;;;;;;24.10;68.60;;;;;;5076079;28;19931;-57
2021/07/31 14:41:31;;;;;;;;;;;24.30;69.40;;;;;;5089268;28;20253;-57
2021/07/31 14:44:45;;;;;;;;;;;24.30;69.00;;;;;;5084012;28;20042;-59
2021/07/31 14:47:33;;;;;;;;;;;24.40;69.40;;;;;;5082822;28;19956;-56
2021/07/31 14:50:22;;;;;;;;;;;24.50;69.20;;;;;;5087771;28;19924;-56
2021/07/31 14:53:12;;;;;;;;;;;24.80;69.60;;;;;;5083665;28;19994;-56
2021/07/31 14:56:01;;;;;;;;;;;25.00;68.70;;;;;;5076683;28;20803;-59
2021/07/31 14:58:50;;;;;;;;;;;25.00;68.00;;;;;;5083552;28;19924;-57
2021/07/31 15:01:47;;;;;;;;;;;25.20;68.80;;;;;;5063569;28;22471;-56
2021/07/31 15:04:36;;;;;;;;;;;25.10;68.20;;;;;;5081939;28;20434;-57
2021/07/31 15:07:24;;;;;;;;;;;25.10;68.90;;;;;;5077130;28;19985;-57
2021/07/31 15:10:15;;;;;;;;;;;24.90;68.40;;;;;;5100265;28;19967;-55
2021/07/31 15:13:07;;;;;;;;;;;24.80;68.40;;;;;;5087370;28;19971;-56
2021/07/31 15:15:56;;;;;;;;;;;24.70;68.80;;;;;;5070772;28;19995;-55
2021/07/31 15:18:44;;;;;;;;;;;24.80;69.10;;;;;;5104793;28;19932;-55
2021/07/31 15:21:33;;;;;;;;;;;25.10;69.40;;;;;;5088280;28;19943;-56
2021/07/31 15:24:21;;;;;;;;;;;25.10;68.50;;;;;;5089185;28;19924;-58
2021/07/31 15:27:12;;;;;;;;;;;24.90;68.20;;;;;;5093732;28;19934;-55
2021/07/31 15:30:00;;;;;;;;;;;24.50;68.80;;;;;;5091711;28;19924;-55
2021/07/31 15:32:48;;;;;;;;;;;24.30;69.30;;;;;;5089045;28;19924;-58
2021/07/31 15:35:37;;;;;;;;;;;24.10;69.60;;;;;;5083474;28;19924;-55
2021/07/31 15:38:26;;;;;;;;;;;24.10;69.70;;;;;;5083508;28;19928;-56
2021/07/31 15:41:15;;;;;;;;;;;23.90;69.60;;;;;;5091431;28;19924;-55
2021/07/31 15:44:06;;;;;;;;;;;24.00;70.20;;;;;;5086095;28;20332;-55
2021/07/31 15:46:54;;;;;;;;;;;24.10;70.10;;;;;;5069497;28;20003;-55
2021/07/31 15:49:43;;;;;;;;;;;24.10;70.30;;;;;;5081016;28;19924;-55
2021/07/31 15:52:33;;;;;;;;;;;24.30;70.30;;;;;;5083873;28;19939;-55
2021/07/31 15:55:22;;;;;;;;;;;24.20;69.90;;;;;;5085453;28;20206;-56
2021/07/31 15:58:11;;;;;;;;;;;23.90;70.50;;;;;;5070806;28;19955;-55
2021/07/31 16:01:00;;;;;;;;;;;23.80;71.50;;;;;;5075052;28;19939;-56
2021/07/31 16:03:49;;;;;;;;;;;23.70;71.20;;;;;;5079180;28;20036;-56
2021/07/31 16:06:38;;;;;;;;;;;23.70;71.40;;;;;;5087705;28;19932;-55
2021/07/31 16:09:34;;;;;;;;;;;23.50;72.10;;;;;;5073938;28;19959;-55
2021/07/31 16:12:23;;;;;;;;;;;23.70;72.90;;;;;;5075863;28;20015;-54
2021/07/31 16:15:12;;;;;;;;;;;23.50;71.60;;;;;;5081243;28;19925;-55
2021/07/31 16:18:02;;;;;;;;;;;23.50;73.10;;;;;;5075741;28;19994;-55
2021/07/31 16:20:51;;;;;;;;;;;23.70;72.20;;;;;;5081288;28;19924;-55
2021/07/31 16:23:40;;;;;;;;;;;23.70;71.40;;;;;;5069668;28;19995;-55
2021/07/31 16:26:53;;;;;;;;;;;23.40;72.30;;;;;;5067160;28;20021;-55
2021/07/31 16:29:53;;;;;;;;;;;23.20;72.20;;;;;;5076262;28;19934;-56
2021/07/31 16:32:41;;;;;;;;;;;23.10;72.10;;;;;;5073520;28;20017;-56
2021/07/31 16:35:33;;;;;;;;;;;23.10;72.10;;;;;;5071748;28;19959;-59
2021/07/31 16:38:22;;;;;;;;;;;23.10;72.10;;;;;;5076579;28;19945;-56
2021/07/31 16:41:10;;;;;;;;;;;23.20;72.70;;;;;;5073269;28;19943;-56
2021/07/31 16:43:59;;;;;;;;;;;23.30;73.10;;;;;;5099854;28;20439;-56
2021/07/31 16:46:48;;;;;;;;;;;23.20;72.80;;;;;;5065423;28;20398;-55